Time;durP1;ratioP1;P1;durP2;ratioP2;P2;SDS_P1;SDS_P2;PMS_P1;PMS_P2;Temp;Humidity;BMP_temperature;BMP_pressure;BME280_temperature;BME280_humidity;BME280_pressure;Samples;Min_cycle;Max_cycle;Signal;HPM_P1;HPM_P2
2023/08/13 00:01:58;;;;;;;5.20;4.80;;;;;;;20.79;100.00;101055.25;5024282;28;20460;-80
2023/08/13 00:04:29;;;;;;;5.90;5.33;;;;;;;20.70;100.00;101045.84;5025261;28;20437;-79
2023/08/13 00:06:58;;;;;;;5.50;5.10;;;;;;;20.55;100.00;101052.06;5025908;28;20465;-79
2023/08/13 00:09:27;;;;;;;5.03;4.53;;;;;;;20.50;100.00;101051.19;5023620;28;20428;-80
2023/08/13 00:11:56;;;;;;;5.97;5.47;;;;;;;20.35;100.00;101051.91;5023811;28;20418;-78
2023/08/13 00:14:26;;;;;;;5.47;5.07;;;;;;;20.35;100.00;101058.25;5024460;28;20411;-79
2023/08/13 00:16:55;;;;;;;5.97;5.43;;;;;;;20.25;100.00;101054.53;5012567;28;20463;-79
2023/08/13 00:19:24;;;;;;;5.67;5.10;;;;;;;20.19;100.00;101064.66;5001527;28;20529;-78
2023/08/13 00:21:55;;;;;;;8.03;6.40;;;;;;;20.07;100.00;101066.75;5025774;28;20429;-78
2023/08/13 00:24:36;;;;;;;6.67;6.17;;;;;;;20.03;100.00;101068.38;5021990;28;20404;-80
2023/08/13 00:27:05;;;;;;;6.47;5.20;;;;;;;19.91;100.00;101075.94;5025759;28;20431;-78
2023/08/13 00:29:34;;;;;;;6.50;5.80;;;;;;;19.84;100.00;101067.09;5009470;28;20464;-78
2023/08/13 00:32:03;;;;;;;6.70;6.10;;;;;;;19.79;100.00;101078.03;5029278;28;20501;-79
2023/08/13 00:34:34;;;;;;;6.07;5.57;;;;;;;19.79;100.00;101075.28;5028671;28;20443;-79
2023/08/13 00:37:04;;;;;;;6.60;5.97;;;;;;;19.75;100.00;101082.38;5008490;28;20469;-78
2023/08/13 00:39:34;;;;;;;7.43;5.37;;;;;;;19.74;100.00;101075.22;5023893;28;20464;-78
2023/08/13 00:42:03;;;;;;;5.70;5.03;;;;;;;19.71;100.00;101075.72;5024746;28;22231;-78
2023/08/13 00:44:32;;;;;;;5.20;4.80;;;;;;;19.71;100.00;101071.06;5022949;28;20460;-79
2023/08/13 00:47:02;;;;;;;14.90;5.63;;;;;;;19.58;100.00;101076.13;5022152;28;20864;-78
2023/08/13 00:49:31;;;;;;;5.87;5.33;;;;;;;19.53;100.00;101077.75;5022450;28;20702;-78
2023/08/13 00:52:01;;;;;;;6.70;6.17;;;;;;;19.46;100.00;101079.03;5022312;28;20471;-78
2023/08/13 00:54:32;;;;;;;6.60;6.00;;;;;;;19.51;100.00;101082.66;5015904;28;20500;-78
2023/08/13 00:57:01;;;;;;;6.30;5.70;;;;;;;19.48;100.00;101088.66;5003490;28;20445;-78
2023/08/13 00:59:31;;;;;;;6.70;6.10;;;;;;;19.40;100.00;101083.59;5012141;28;20459;-78
2023/08/13 01:02:01;;;;;;;6.57;6.07;;;;;;;19.37;100.00;101086.00;5027892;28;20784;-78
2023/08/13 01:04:30;;;;;;;7.00;6.40;;;;;;;19.35;100.00;101091.75;5006871;28;20446;-79
2023/08/13 01:07:04;;;;;;;6.83;5.30;;;;;;;19.22;100.00;101105.84;5031712;28;20522;-79
2023/08/13 01:09:45;;;;;;;7.23;5.53;;;;;;;19.31;100.00;101107.09;5021721;28;20478;-78
2023/08/13 01:12:29;;;;;;;7.07;5.67;;;;;;;19.11;100.00;101112.28;4997827;28;20416;-78
2023/08/13 01:18:50;;;;;;;8.97;6.00;;;;;;;18.94;100.00;101108.75;4978150;28;20438;-77
2023/08/13 01:21:19;;;;;;;8.93;6.77;;;;;;;19.05;100.00;101121.53;5015750;28;20417;-78
2023/08/13 01:23:49;;;;;;;6.30;5.80;;;;;;;18.93;100.00;101124.34;5024271;28;20411;-77
2023/08/13 01:26:23;;;;;;;8.00;7.30;;;;;;;18.95;100.00;101124.13;5023709;28;20500;-78
2023/08/13 01:29:00;;;;;;;10.13;7.50;;;;;;;18.98;100.00;101118.13;5038278;28;20440;-78
2023/08/13 01:31:32;;;;;;;6.90;6.30;;;;;;;18.99;100.00;101122.53;5038366;28;20463;-78
2023/08/13 01:34:03;;;;;;;8.30;7.50;;;;;;;18.88;100.00;101121.53;5036875;28;20460;-77
2023/08/13 01:36:33;;;;;;;7.47;6.77;;;;;;;18.98;100.00;101126.34;4999840;28;20474;-78
2023/08/13 01:39:05;;;;;;;9.50;8.23;;;;;;;19.02;100.00;101135.75;5020267;28;20464;-79
2023/08/13 01:41:44;;;;;;;9.27;8.37;;;;;;;19.02;100.00;101133.00;5017315;28;20491;-78
2023/08/13 01:44:14;;;;;;;9.37;8.47;;;;;;;19.05;100.00;101144.31;5005647;28;20456;-78
2023/08/13 01:46:44;;;;;;;8.87;7.77;;;;;;;19.14;100.00;101136.47;5009419;28;20460;-78
2023/08/13 01:49:13;;;;;;;8.77;7.97;;;;;;;19.24;100.00;101142.09;5007471;28;20437;-78
2023/08/13 01:51:42;;;;;;;8.17;7.47;;;;;;;19.36;100.00;101145.56;5014223;28;20465;-78
2023/08/13 01:54:13;;;;;;;8.63;7.80;;;;;;;19.43;100.00;101142.63;5013855;28;20437;-78
2023/08/13 01:56:43;;;;;;;8.23;7.20;;;;;;;19.47;100.00;101149.28;5009921;28;20456;-79
2023/08/13 01:59:13;;;;;;;8.53;7.77;;;;;;;19.55;100.00;101151.59;5028566;28;20927;-80
2023/08/13 02:01:42;;;;;;;8.20;7.60;;;;;;;19.41;100.00;101142.06;5013942;28;20407;-78
2023/08/13 02:04:11;;;;;;;8.67;7.87;;;;;;;19.31;100.00;101153.72;5024661;28;20421;-79
2023/08/13 02:06:41;;;;;;;7.93;7.23;;;;;;;19.32;100.00;101149.03;5005447;28;20468;-80
2023/08/13 02:09:10;;;;;;;9.47;7.47;;;;;;;19.36;100.00;101150.22;5018229;28;20431;-81
2023/08/13 02:11:40;;;;;;;7.90;7.20;;;;;;;19.48;100.00;101149.03;5017270;28;20493;-79
2023/08/13 02:14:09;;;;;;;7.90;7.20;;;;;;;19.37;100.00;101151.84;5017112;28;20400;-78
2023/08/13 02:16:39;;;;;;;7.07;6.47;;;;;;;19.36;100.00;101152.97;5020092;28;20526;-80
2023/08/13 02:19:08;;;;;;;7.87;7.27;;;;;;;19.36;100.00;101148.31;5000071;28;20471;-80
2023/08/13 02:21:37;;;;;;;8.27;7.47;;;;;;;19.35;100.00;101152.13;5036941;28;20463;-80
2023/08/13 02:24:07;;;;;;;8.17;7.50;;;;;;;19.36;100.00;101153.81;5016862;28;20501;-77
2023/08/13 02:26:36;;;;;;;8.07;7.47;;;;;;;19.45;100.00;101155.06;5027964;28;20422;-79
2023/08/13 02:29:06;;;;;;;8.00;6.60;;;;;;;19.44;100.00;101147.91;5026762;28;20441;-79
2023/08/13 02:31:35;;;;;;;8.40;7.70;;;;;;;19.33;100.00;101165.25;5044927;28;20469;-79
2023/08/13 02:34:06;;;;;;;8.03;7.43;;;;;;;19.16;100.00;101167.22;5011008;28;20441;-79
2023/08/13 02:36:35;;;;;;;7.33;6.73;;;;;;;18.99;100.00;101178.22;5026142;28;20458;-79
2023/08/13 02:39:05;;;;;;;9.60;7.90;;;;;;;18.85;100.00;101176.91;5008066;28;20970;-80
2023/08/13 02:41:34;;;;;;;7.90;7.30;;;;;;;18.65;100.00;101171.91;5007315;28;20445;-79
2023/08/13 02:44:05;;;;;;;7.70;7.10;;;;;;;18.65;100.00;101182.88;5021988;28;20440;-79
2023/08/13 02:46:34;;;;;;;8.83;7.93;;;;;;;18.60;100.00;101173.72;5004577;28;20458;-80
2023/08/13 02:49:04;;;;;;;9.20;8.40;;;;;;;18.47;100.00;101180.34;5014972;28;20871;-83
2023/08/13 02:51:33;;;;;;;8.13;7.40;;;;;;;18.31;100.00;101172.06;5017570;28;20464;-80
2023/08/13 02:54:02;;;;;;;8.47;7.77;;;;;;;18.18;100.00;101171.31;5014094;28;20423;-80
2023/08/13 02:56:32;;;;;;;10.07;7.63;;;;;;;18.24;100.00;101177.72;5029582;28;20448;-79
2023/08/13 02:59:01;;;;;;;7.50;6.90;;;;;;;18.14;100.00;101181.13;5043692;28;20429;-79
2023/08/13 03:01:31;;;;;;;8.20;7.37;;;;;;;18.01;100.00;101192.34;5000435;28;20433;-79
2023/08/13 03:04:03;;;;;;;9.17;8.37;;;;;;;18.06;100.00;101197.09;5020915;28;20453;-79
2023/08/13 03:06:32;;;;;;;8.53;7.50;;;;;;;17.96;100.00;101189.50;5032355;28;20460;-79
2023/08/13 03:09:01;;;;;;;7.83;7.23;;;;;;;17.91;100.00;101181.19;5035193;28;20433;-78
2023/08/13 03:11:31;;;;;;;8.80;7.90;;;;;;;17.91;100.00;101185.84;5020024;28;20479;-79
2023/08/13 03:14:00;;;;;;;9.67;8.77;;;;;;;17.87;100.00;101184.66;5036439;28;20475;-79
2023/08/13 03:16:30;;;;;;;9.33;8.53;;;;;;;18.00;100.00;101187.13;5014151;28;20519;-80
2023/08/13 03:19:00;;;;;;;9.10;8.20;;;;;;;17.91;100.00;101180.38;5004356;28;20423;-79
2023/08/13 03:21:29;;;;;;;11.93;8.37;;;;;;;17.84;100.00;101179.69;5038169;28;20425;-78
2023/08/13 03:23:58;;;;;;;10.47;9.00;;;;;;;17.79;100.00;101188.63;5013439;28;20452;-78
2023/08/13 03:26:28;;;;;;;12.63;8.30;;;;;;;17.72;100.00;101196.13;5006252;28;20453;-77
2023/08/13 03:28:57;;;;;;;9.30;8.40;;;;;;;17.66;100.00;101189.75;5001781;28;20440;-78
2023/08/13 03:31:26;;;;;;;20.30;12.43;;;;;;;17.66;100.00;101197.94;5024822;28;20437;-78
2023/08/13 03:34:05;;;;;;;12.03;9.17;;;;;;;17.66;100.00;101197.09;5003072;28;20531;-78
2023/08/13 03:36:34;;;;;;;9.93;8.97;;;;;;;17.61;100.00;101195.09;5023762;28;20490;-78
2023/08/13 03:39:04;;;;;;;11.63;10.47;;;;;;;17.65;100.00;101201.75;4998915;28;20444;-77
2023/08/13 03:41:33;;;;;;;11.70;10.27;;;;;;;17.68;100.00;101209.47;5020424;28;20433;-79
2023/08/13 03:44:02;;;;;;;10.57;8.93;;;;;;;17.69;100.00;101211.13;5021138;28;20434;-76
2023/08/13 03:46:31;;;;;;;11.27;10.27;;;;;;;17.70;100.00;101211.97;5021624;28;20448;-77
2023/08/13 03:49:00;;;;;;;9.33;8.47;;;;;;;17.72;100.00;101207.91;5038162;28;20420;-77
2023/08/13 03:51:30;;;;;;;11.10;10.20;;;;;;;17.83;100.00;101210.84;5021327;28;20433;-77
2023/08/13 03:53:59;;;;;;;11.57;10.50;;;;;;;17.84;100.00;101207.06;5053807;28;20459;-77
2023/08/13 03:56:33;;;;;;;9.80;8.90;;;;;;;17.88;100.00;101216.44;5018975;28;20469;-78
2023/08/13 03:59:03;;;;;;;11.60;10.00;;;;;;;17.89;100.00;101218.09;5019024;28;21057;-78
2023/08/13 04:01:32;;;;;;;14.23;9.57;;;;;;;17.93;100.00;101216.53;5002531;28;20472;-77
2023/08/13 04:04:02;;;;;;;10.27;8.90;;;;;;;18.02;100.00;101220.56;5018041;28;20841;-77
2023/08/13 04:06:33;;;;;;;8.50;7.80;;;;;;;18.05;100.00;101222.84;4999130;28;20968;-79
2023/08/13 04:09:02;;;;;;;12.43;9.80;;;;;;;18.30;100.00;101231.53;5014853;28;20869;-78
2023/08/13 04:11:31;;;;;;;10.07;9.20;;;;;;;18.75;100.00;101226.06;5001594;28;20496;-78
2023/08/13 04:14:01;;;;;;;9.73;8.13;;;;;;;18.98;100.00;101230.56;5021343;28;20487;-77
2023/08/13 04:16:30;;;;;;;9.87;8.97;;;;;;;19.88;100.00;101230.28;5000712;28;20958;-78
2023/08/13 04:19:00;;;;;;;9.70;7.63;;;;;;;20.78;100.00;101233.19;5004081;28;20436;-78
2023/08/13 04:21:32;;;;;;;20.10;8.43;;;;;;;21.56;100.00;101239.03;5017926;28;20451;-80
2023/08/13 04:24:01;;;;;;;7.80;7.00;;;;;;;22.19;100.00;101242.63;5013979;28;20425;-79
2023/08/13 04:26:30;;;;;;;8.83;6.37;;;;;;;22.46;96.37;101237.75;5013180;28;20472;-78
2023/08/13 04:29:02;;;;;;;7.07;6.37;;;;;;;22.96;92.10;101240.59;5041107;28;20445;-78
2023/08/13 04:31:31;;;;;;;9.00;5.93;;;;;;;23.06;89.10;101239.75;5021383;28;20433;-78
2023/08/13 04:34:00;;;;;;;5.80;5.20;;;;;;;22.82;88.59;101239.47;5025834;28;20492;-78
2023/08/13 04:36:29;;;;;;;6.93;6.20;;;;;;;23.26;85.69;101245.28;5008603;28;20992;-79
2023/08/13 04:39:00;;;;;;;5.70;5.10;;;;;;;23.59;84.25;101251.31;5018925;28;20485;-79
2023/08/13 04:41:29;;;;;;;11.47;5.03;;;;;;;24.18;80.08;101241.19;5018561;28;20461;-78
2023/08/13 04:43:58;;;;;;;6.37;5.87;;;;;;;24.64;76.57;101255.53;5009891;28;20774;-79
2023/08/13 04:46:28;;;;;;;5.00;4.60;;;;;;;24.75;74.52;101244.41;5014279;28;20431;-79
2023/08/13 04:48:59;;;;;;;6.00;5.50;;;;;;;23.94;76.74;101239.31;5031972;28;20459;-78
2023/08/13 04:51:31;;;;;;;4.97;4.50;;;;;;;23.89;77.46;101244.88;5010814;28;20445;-78
2023/08/13 04:54:03;;;;;;;4.57;4.17;;;;;;;24.27;75.72;101259.94;5000954;28;20465;-79
2023/08/13 04:56:32;;;;;;;7.50;4.50;;;;;;;24.64;73.21;101250.00;5005926;28;20465;-78
2023/08/13 04:59:01;;;;;;;6.77;4.60;;;;;;;25.29;69.83;101245.09;5020130;28;20440;-77
2023/08/13 05:01:32;;;;;;;7.43;4.70;;;;;;;25.86;66.74;101248.91;4999904;28;20787;-77
2023/08/13 05:04:03;;;;;;;6.07;4.17;;;;;;;26.12;65.63;101247.50;4999250;28;20799;-78
2023/08/13 05:06:35;;;;;;;5.03;4.00;;;;;;;26.29;62.95;101253.38;4999768;28;20990;-78
2023/08/13 05:09:07;;;;;;;4.60;4.20;;;;;;;26.33;63.84;101260.00;5015682;28;20441;-78
2023/08/13 05:11:36;;;;;;;5.33;3.80;;;;;;;26.94;60.14;101263.84;5001748;28;21013;-78
2023/08/13 05:14:05;;;;;;;6.33;4.10;;;;;;;26.81;61.36;101268.19;5023700;28;20523;-77
2023/08/13 05:16:34;;;;;;;5.13;3.90;;;;;;;26.59;60.48;101268.78;5007572;28;20464;-78
2023/08/13 05:19:05;;;;;;;3.83;3.43;;;;;;;26.62;60.02;101272.91;5012308;28;20468;-78
2023/08/13 05:21:34;;;;;;;4.70;3.37;;;;;;;27.09;57.87;101260.81;5016186;28;20481;-78
2023/08/13 05:24:08;;;;;;;5.20;3.47;;;;;;;27.42;57.16;101264.38;5009385;28;20429;-78
2023/08/13 05:26:37;;;;;;;4.83;3.90;;;;;;;25.16;63.03;101256.84;5013417;28;20472;-79
2023/08/13 05:29:06;;;;;;;3.90;3.37;;;;;;;24.09;67.48;101261.38;5042931;28;20441;-77
2023/08/13 05:31:36;;;;;;;7.93;3.50;;;;;;;23.14;73.45;101261.28;5010737;28;20505;-77
2023/08/13 05:34:07;;;;;;;4.23;3.77;;;;;;;22.63;73.13;101265.91;5012435;28;20479;-78
2023/08/13 05:36:36;;;;;;;4.67;3.80;;;;;;;22.08;77.02;101275.69;5019485;28;20870;-78
2023/08/13 05:39:09;;;;;;;7.97;2.90;;;;;;;21.62;78.20;101263.59;5015726;28;20437;-77
2023/08/13 05:41:38;;;;;;;6.00;3.40;;;;;;;21.56;79.47;101269.31;5030777;28;20433;-78
2023/08/13 05:44:07;;;;;;;7.10;4.23;;;;;;;21.60;80.99;101270.44;5017492;28;20425;-78
2023/08/13 05:46:36;;;;;;;4.53;4.07;;;;;;;21.41;82.63;101266.44;5033698;28;20445;-78
2023/08/13 05:49:08;;;;;;;5.10;3.30;;;;;;;21.45;81.80;101271.16;5030497;28;20438;-77
2023/08/13 05:51:37;;;;;;;4.37;3.63;;;;;;;21.36;84.44;101264.50;5030700;28;20425;-77
2023/08/13 05:54:09;;;;;;;5.20;4.03;;;;;;;21.45;83.44;101273.09;5035350;28;20451;-78
2023/08/13 05:56:38;;;;;;;7.20;3.47;;;;;;;21.37;83.33;101271.66;5035649;28;20457;-78
2023/08/13 05:59:07;;;;;;;8.93;3.90;;;;;;;21.40;83.34;101275.81;5034630;28;20437;-77
2023/08/13 06:01:36;;;;;;;6.90;3.60;;;;;;;21.71;80.84;101282.34;5034047;28;20425;-78
2023/08/13 06:04:06;;;;;;;6.57;3.27;;;;;;;21.54;83.22;101280.59;5035719;28;20440;-78
2023/08/13 06:06:35;;;;;;;7.13;3.50;;;;;;;21.52;81.87;101280.03;5029890;23;20572;-80
2023/08/13 06:09:06;;;;;;;4.57;3.27;;;;;;;21.44;82.45;101288.81;5016694;28;20442;-81
2023/08/13 06:11:35;;;;;;;4.80;3.80;;;;;;;21.49;80.10;101290.75;5015979;28;20451;-80
2023/08/13 06:14:04;;;;;;;11.13;3.97;;;;;;;21.58;80.33;101286.41;5016306;28;20496;-79
2023/08/13 06:16:33;;;;;;;5.10;3.37;;;;;;;21.75;79.84;101287.06;5019803;28;20540;-78
2023/08/13 06:19:02;;;;;;;7.13;4.60;;;;;;;22.06;77.98;101291.66;5015046;28;20449;-79
2023/08/13 06:21:33;;;;;;;6.40;3.57;;;;;;;22.15;74.38;101289.22;5032251;28;20431;-78
2023/08/13 06:24:02;;;;;;;6.00;4.10;;;;;;;22.21;73.21;101292.81;5008958;28;20932;-81
2023/08/13 06:26:32;;;;;;;7.77;3.30;;;;;;;22.18;71.40;101298.84;5002854;28;20560;-79
2023/08/13 06:29:01;;;;;;;3.10;2.47;;;;;;;22.13;72.25;101294.16;5018697;28;20866;-80
2023/08/13 06:31:30;;;;;;;3.87;2.60;;;;;;;22.24;71.74;101303.31;5002279;28;20964;-81
2023/08/13 06:34:13;;;;;;;6.27;2.70;;;;;;;22.37;69.70;101300.03;5015031;28;20498;-81
2023/08/13 06:36:43;;;;;;;5.00;3.37;;;;;;;22.47;68.14;101300.06;5017927;28;20449;-81
2023/08/13 06:39:12;;;;;;;4.67;3.97;;;;;;;22.62;68.63;101296.53;5012097;28;20433;-79
2023/08/13 06:41:42;;;;;;;6.37;3.20;;;;;;;22.66;66.08;101292.94;5015877;28;20879;-80
2023/08/13 06:44:19;;;;;;;5.00;3.50;;;;;;;23.01;65.48;101296.88;4999898;28;20415;-80
2023/08/13 06:46:53;;;;;;;6.40;4.43;;;;;;;23.37;65.32;101296.63;5016314;28;20502;-80
2023/08/13 06:49:22;;;;;;;5.80;3.70;;;;;;;23.60;63.10;101298.00;5002339;28;20444;-81
2023/08/13 06:51:51;;;;;;;14.63;4.20;;;;;;;23.70;59.65;101305.44;5020514;28;20432;-79
2023/08/13 06:54:20;;;;;;;5.57;3.23;;;;;;;23.76;61.26;101294.09;5022514;28;20563;-79
2023/08/13 06:56:50;;;;;;;4.60;2.60;;;;;;;23.75;62.17;101306.25;5022476;28;20456;-79
2023/08/13 06:59:20;;;;;;;8.37;3.03;;;;;;;23.78;60.94;101296.56;5004763;28;20447;-78
2023/08/13 07:01:49;;;;;;;6.83;2.90;;;;;;;23.87;59.88;101297.66;5029947;28;20448;-79
2023/08/13 07:04:18;;;;;;;7.90;3.70;;;;;;;24.10;60.96;101305.34;5023567;28;20465;-78
2023/08/13 07:06:47;;;;;;;5.60;2.90;;;;;;;24.05;60.26;101305.34;5018899;28;20552;-78
2023/08/13 07:09:17;;;;;;;5.83;2.37;;;;;;;24.08;58.91;101302.00;5023998;28;20444;-78
2023/08/13 07:11:45;;;;;;;6.87;3.17;;;;;;;24.06;59.55;101303.41;5017483;28;20429;-79
2023/08/13 07:14:16;;;;;;;10.33;3.40;;;;;;;24.03;57.05;101303.97;5008316;28;20456;-79
2023/08/13 07:16:46;;;;;;;4.00;2.80;;;;;;;24.16;57.24;101308.88;5017110;28;20454;-78
2023/08/13 07:19:15;;;;;;;6.57;3.17;;;;;;;24.40;57.30;101309.91;5013612;28;20841;-79
2023/08/13 07:21:45;;;;;;;6.33;3.77;;;;;;;24.58;56.28;101312.06;5012123;28;20445;-80
2023/08/13 07:24:14;;;;;;;9.43;2.43;;;;;;;24.44;55.21;101311.03;5026191;28;20424;-79
2023/08/13 07:26:43;;;;;;;8.10;2.93;;;;;;;24.68;55.44;101312.00;5003660;28;20457;-81
2023/08/13 07:29:12;;;;;;;8.03;2.80;;;;;;;24.57;55.59;101324.22;5016982;28;20889;-80
2023/08/13 07:31:42;;;;;;;4.67;3.50;;;;;;;24.66;54.64;101314.22;5016966;28;20433;-80
2023/08/13 07:34:11;;;;;;;4.23;2.93;;;;;;;24.61;53.47;101311.47;5014208;28;20492;-79
2023/08/13 07:36:41;;;;;;;10.63;4.80;;;;;;;24.63;54.13;101312.03;5016202;28;20458;-79
2023/08/13 07:39:16;;;;;;;7.30;3.10;;;;;;;24.63;55.57;101312.03;5000366;28;20468;-80
2023/08/13 07:41:47;;;;;;;8.10;3.57;;;;;;;24.77;55.50;101308.63;5003277;28;20810;-79
2023/08/13 07:44:16;;;;;;;6.90;2.77;;;;;;;24.81;55.64;101313.28;5016389;28;20483;-80
2023/08/13 07:46:50;;;;;;;6.70;2.93;;;;;;;24.80;54.92;101313.56;5017745;28;20536;-79
2023/08/13 07:49:19;;;;;;;5.60;3.30;;;;;;;24.36;54.47;101319.06;5020222;28;20452;-80
2023/08/13 07:51:48;;;;;;;10.13;3.83;;;;;;;24.25;55.14;101312.78;5034399;28;20438;-81
2023/08/13 07:54:17;;;;;;;8.13;3.30;;;;;;;24.24;55.54;101319.41;5043221;28;20493;-79
2023/08/13 07:56:47;;;;;;;5.60;3.50;;;;;;;24.35;55.20;101323.75;5037291;28;20807;-82
2023/08/13 07:59:17;;;;;;;10.60;3.87;;;;;;;24.50;55.67;101320.09;5041507;28;20413;-80
2023/08/13 08:01:49;;;;;;;7.33;3.83;;;;;;;24.62;54.61;101321.44;5022331;28;20444;-80
2023/08/13 08:04:18;;;;;;;6.30;3.43;;;;;;;24.79;53.80;101328.50;5020672;28;20425;-80
2023/08/13 08:06:48;;;;;;;9.13;3.23;;;;;;;24.86;53.96;101323.50;5025245;28;20850;-81
2023/08/13 08:09:17;;;;;;;5.10;2.73;;;;;;;24.87;53.64;101325.19;5013339;28;20807;-79
2023/08/13 08:11:46;;;;;;;7.37;2.93;;;;;;;25.03;51.61;101324.78;5004809;28;20441;-79
2023/08/13 08:14:15;;;;;;;9.03;3.40;;;;;;;24.62;52.61;101324.19;5037722;28;20503;-80
2023/08/13 08:16:44;;;;;;;3.93;2.97;;;;;;;24.69;53.83;101323.88;5044656;28;20440;-79
2023/08/13 08:19:14;;;;;;;9.27;3.77;;;;;;;24.56;54.03;101325.34;5038050;28;20456;-80
2023/08/13 08:21:43;;;;;;;5.40;2.77;;;;;;;24.77;54.24;101322.44;5021464;28;20441;-80
2023/08/13 08:24:12;;;;;;;6.63;3.57;;;;;;;24.75;53.24;101327.44;5015535;28;20760;-80
2023/08/13 08:26:41;;;;;;;5.03;2.60;;;;;;;24.87;52.40;101325.19;5029448;28;20507;-80
2023/08/13 08:29:10;;;;;;;6.20;3.20;;;;;;;25.18;52.78;101321.06;5019255;28;20516;-80
2023/08/13 08:31:39;;;;;;;8.90;4.20;;;;;;;25.39;51.47;101322.56;5031324;28;20484;-81
2023/08/13 08:34:08;;;;;;;5.23;2.47;;;;;;;25.75;49.94;101325.03;5009172;28;20477;-80
2023/08/13 08:36:38;;;;;;;6.10;2.63;;;;;;;25.72;49.27;101323.66;5015886;28;20435;-81
2023/08/13 08:39:08;;;;;;;9.23;3.07;;;;;;;25.71;48.21;101322.00;5010961;28;20437;-81
2023/08/13 08:41:41;;;;;;;7.07;3.10;;;;;;;25.86;49.31;101323.78;5017173;28;20539;-81
2023/08/13 08:44:14;;;;;;;4.33;2.60;;;;;;;25.69;49.08;101320.66;5009304;28;20433;-80
2023/08/13 08:46:43;;;;;;;8.30;3.20;;;;;;;26.01;48.28;101318.06;5006279;28;20499;-80
2023/08/13 08:49:15;;;;;;;3.70;2.00;;;;;;;26.17;48.03;101316.78;5020283;28;20441;-82
2023/08/13 08:51:46;;;;;;;7.30;3.20;;;;;;;26.35;47.51;101313.22;5015589;28;20457;-81
2023/08/13 08:54:15;;;;;;;5.40;2.90;;;;;;;26.17;48.08;101316.78;5018829;28;20887;-81
2023/08/13 08:56:44;;;;;;;9.60;3.07;;;;;;;26.08;47.50;101320.50;5018823;28;20465;-80
2023/08/13 08:59:14;;;;;;;4.33;3.10;;;;;;;26.19;47.49;101317.28;5004434;28;20440;-82
2023/08/13 09:01:43;;;;;;;4.87;3.03;;;;;;;26.34;47.74;101308.81;5023692;28;20935;-81
2023/08/13 09:04:12;;;;;;;6.50;3.50;;;;;;;26.27;46.46;101302.81;5022477;28;20500;-80
2023/08/13 09:07:00;;;;;;;3.90;2.53;;;;;;;25.91;46.37;101307.91;5026861;28;20469;-80
2023/08/13 09:09:30;;;;;;;6.60;2.97;;;;;;;26.08;45.16;101301.91;5050231;28;20568;-81
2023/08/13 09:12:00;;;;;;;7.60;3.10;;;;;;;26.29;45.57;101306.09;5035374;28;20434;-80
2023/08/13 09:14:29;;;;;;;6.07;3.10;;;;;;;26.62;46.22;101306.22;5040637;28;20466;-78
2023/08/13 09:16:58;;;;;;;9.73;3.83;;;;;;;26.55;45.07;101302.97;5034997;28;20463;-80
2023/08/13 09:19:29;;;;;;;4.97;2.80;;;;;;;26.61;45.36;101310.94;5032551;28;20431;-80
2023/08/13 09:22:03;;;;;;;4.73;2.93;;;;;;;26.74;45.80;101304.66;5021124;28;20467;-81
2023/08/13 09:24:34;;;;;;;6.90;2.40;;;;;;;26.66;45.17;101302.56;5032523;28;20789;-81
2023/08/13 09:27:05;;;;;;;6.20;3.13;;;;;;;26.89;44.75;101303.63;5039251;28;20465;-83
2023/08/13 09:29:34;;;;;;;5.60;3.17;;;;;;;26.93;45.00;101301.06;5039267;28;20502;-80
2023/08/13 09:32:04;;;;;;;19.50;6.00;;;;;;;26.92;44.57;101303.00;5039912;28;20838;-82
2023/08/13 09:34:34;;;;;;;8.30;4.90;;;;;;;26.65;42.91;101300.06;5042300;28;20419;-82
2023/08/13 09:37:04;;;;;;;4.20;2.77;;;;;;;26.62;43.92;101295.13;5041640;28;20961;-80
2023/08/13 09:39:34;;;;;;;6.07;3.40;;;;;;;26.77;43.76;101286.56;5040031;28;20452;-80
2023/08/13 09:42:06;;;;;;;8.90;4.37;;;;;;;26.69;43.82;101287.22;5035602;28;20446;-80
2023/08/13 09:44:35;;;;;;;5.77;3.77;;;;;;;26.93;43.62;101290.78;5017643;28;20489;-81
2023/08/13 09:47:07;;;;;;;9.43;4.80;;;;;;;26.36;42.84;101286.31;5027769;28;20502;-79
2023/08/13 09:49:37;;;;;;;5.67;3.23;;;;;;;26.52;42.11;101284.16;5033786;28;20438;-78
2023/08/13 09:52:09;;;;;;;6.70;3.03;;;;;;;26.55;42.45;101280.78;5041076;28;20428;-80
2023/08/13 09:54:42;;;;;;;8.50;3.67;;;;;;;26.79;42.74;101284.31;5035764;28;20928;-81
2023/08/13 09:57:14;;;;;;;4.20;2.70;;;;;;;26.86;42.96;101287.56;5037782;28;20488;-80
2023/08/13 09:59:45;;;;;;;5.07;2.40;;;;;;;26.59;41.43;101282.66;5035985;28;20464;-81
2023/08/13 10:02:15;;;;;;;5.77;3.37;;;;;;;26.73;42.44;101286.31;5019431;28;20450;-79
2023/08/13 10:04:47;;;;;;;6.30;2.60;;;;;;;27.14;41.50;101292.09;5018698;28;20433;-80
2023/08/13 10:07:22;;;;;;;4.67;3.00;;;;;;;27.35;40.50;101283.44;5039686;28;20500;-80
2023/08/13 10:09:53;;;;;;;4.60;2.97;;;;;;;27.51;41.19;101282.84;5023606;28;20501;-79
2023/08/13 10:12:36;;;;;;;3.90;2.70;;;;;;;27.47;41.93;101283.75;5040718;28;20431;-79
2023/08/13 10:15:07;;;;;;;4.93;2.97;;;;;;;27.56;41.72;101282.75;5039256;28;20463;-81
2023/08/13 10:17:37;;;;;;;4.80;3.07;;;;;;;27.50;41.05;101277.59;5028941;28;20900;-79
2023/08/13 10:20:07;;;;;;;6.80;3.93;;;;;;;27.30;41.02;101278.78;5038765;28;20428;-80
2023/08/13 10:22:40;;;;;;;8.37;3.10;;;;;;;27.15;42.28;101279.88;5042193;28;20443;-80
2023/08/13 10:25:27;;;;;;;4.13;2.70;;;;;;;27.31;42.47;101274.03;5024049;28;20434;-79
2023/08/13 10:27:58;;;;;;;4.27;2.83;;;;;;;27.77;40.97;101286.00;5038309;28;20442;-80
2023/08/13 10:30:27;;;;;;;4.83;2.93;;;;;;;28.10;41.01;101284.75;5034952;28;20434;-79
2023/08/13 10:33:02;;;;;;;5.63;3.87;;;;;;;27.89;38.81;101282.69;5038584;28;20462;-80
2023/08/13 10:35:34;;;;;;;4.70;3.03;;;;;;;27.19;39.84;101283.69;5042391;28;20464;-80
2023/08/13 10:38:06;;;;;;;7.00;2.67;;;;;;;27.13;39.02;101284.91;5020683;28;20448;-80
2023/08/13 10:40:57;;;;;;;5.13;2.73;;;;;;;27.39;38.95;101292.78;5040912;28;20429;-79
2023/08/13 10:43:26;;;;;;;7.70;3.50;;;;;;;27.83;39.18;101287.56;5034754;28;20483;-81
2023/08/13 10:45:56;;;;;;;5.80;2.83;;;;;;;28.17;38.01;101289.13;5021705;28;20463;-80
2023/08/13 10:48:30;;;;;;;8.50;3.73;;;;;;;28.31;37.99;101292.72;5044638;28;20425;-80
2023/08/13 10:51:00;;;;;;;5.60;3.17;;;;;;;28.05;37.96;101296.00;5045969;28;20432;-80
2023/08/13 10:53:34;;;;;;;5.47;3.07;;;;;;;27.69;39.07;101292.28;5045642;28;20434;-81
2023/08/13 10:56:04;;;;;;;7.30;3.73;;;;;;;27.65;39.46;101289.25;5052571;28;20488;-80
2023/08/13 10:58:39;;;;;;;5.40;3.27;;;;;;;27.82;40.79;101297.00;5047056;28;20434;-79
2023/08/13 11:01:16;;;;;;;4.83;2.47;;;;;;;27.88;39.51;101287.44;5060832;28;20634;-82
2023/08/13 11:03:46;;;;;;;7.37;3.93;;;;;;;28.52;38.53;101296.69;5052290;28;20438;-82
2023/08/13 11:06:16;;;;;;;11.23;3.37;;;;;;;28.81;37.16;101302.72;5036384;28;20486;-82
2023/08/13 11:08:47;;;;;;;5.17;3.00;;;;;;;29.00;36.67;101293.38;5050166;28;20424;-80
2023/08/13 11:11:18;;;;;;;8.83;5.20;;;;;;;28.59;36.22;101288.72;5043892;28;20437;-81
2023/08/13 11:13:50;;;;;;;4.80;3.03;;;;;;;28.23;37.78;101290.63;5042232;28;20849;-81
2023/08/13 11:16:19;;;;;;;7.30;4.20;;;;;;;28.12;37.33;101297.56;5023691;28;20495;-81
2023/08/13 11:18:48;;;;;;;6.13;3.50;;;;;;;28.53;38.69;101289.97;5043719;28;20438;-81
2023/08/13 11:21:18;;;;;;;6.83;3.57;;;;;;;28.51;38.64;101287.50;5042159;28;20435;-82
2023/08/13 11:23:49;;;;;;;4.53;2.60;;;;;;;28.33;39.11;101287.63;5048770;28;20425;-81
2023/08/13 11:26:20;;;;;;;6.03;3.20;;;;;;;28.15;39.34;101288.59;5054311;28;20525;-81
2023/08/13 11:28:51;;;;;;;3.90;2.70;;;;;;;28.35;38.20;101282.59;5057476;28;20438;-80
2023/08/13 11:31:25;;;;;;;6.10;3.90;;;;;;;28.86;38.72;101283.09;5050608;28;20470;-80
2023/08/13 11:33:55;;;;;;;6.70;3.07;;;;;;;29.14;37.64;101283.81;5055597;28;20408;-81
2023/08/13 11:36:24;;;;;;;4.40;2.70;;;;;;;28.83;37.81;101283.72;5053495;28;20479;-80
2023/08/13 11:38:55;;;;;;;4.50;3.00;;;;;;;28.58;38.24;101273.16;5036850;28;20490;-81
2023/08/13 11:41:24;;;;;;;5.80;3.33;;;;;;;28.55;38.75;101276.56;5051188;28;20468;-80